createdAt,value
2022-10-17T00:01:07.472Z,14.10
2022-10-17T00:03:37.301Z,12.00
2022-10-17T00:06:15.639Z,12.40
2022-10-17T00:08:45.185Z,12.90
2022-10-17T00:11:23.927Z,13.90
2022-10-17T00:13:55.749Z,13.10
2022-10-17T00:16:30.980Z,14.40
2022-10-17T00:18:58.574Z,13.50
2022-10-17T00:21:27.170Z,14.90
2022-10-17T00:23:55.679Z,12.20
2022-10-17T00:26:23.462Z,13.20
2022-10-17T00:28:52.889Z,14.00
2022-10-17T00:31:23.147Z,13.50
2022-10-17T00:33:52.258Z,12.00
2022-10-17T00:36:25.979Z,13.20
2022-10-17T00:38:58.054Z,12.30
2022-10-17T00:41:33.402Z,11.40
2022-10-17T00:44:31.888Z,11.50
2022-10-17T00:47:05.263Z,10.50
2022-10-17T00:49:36.581Z,11.30
2022-10-17T00:52:18.341Z,10.80
2022-10-17T00:54:56.071Z,12.80
2022-10-17T00:57:27.170Z,10.90
2022-10-17T00:59:59.392Z,10.30
2022-10-17T01:02:27.349Z,10.90
2022-10-17T01:04:59.430Z,10.20
2022-10-17T01:07:33.169Z,9.40
2022-10-17T01:10:06.197Z,10.60
2022-10-17T01:12:52.156Z,10.50
2022-10-17T01:15:55.424Z,11.10
2022-10-17T01:18:45.203Z,10.20
2022-10-17T01:21:51.750Z,10.50
2022-10-17T01:24:39.557Z,9.90
2022-10-17T01:27:42.285Z,10.30
2022-10-17T01:30:29.289Z,10.80
2022-10-17T01:33:02.894Z,11.00
2022-10-17T01:35:44.518Z,10.20
2022-10-17T01:38:23.821Z,10.40
2022-10-17T01:41:10.858Z,10.80
2022-10-17T01:43:47.135Z,10.10
2022-10-17T01:46:37.157Z,10.70
2022-10-17T01:49:09.765Z,10.10
2022-10-17T01:51:47.858Z,9.40
2022-10-17T01:54:39.344Z,10.50
2022-10-17T01:57:22.017Z,11.10
2022-10-17T01:59:52.756Z,9.90
2022-10-17T02:02:21.652Z,9.60
2022-10-17T02:04:52.135Z,10.20
2022-10-17T02:07:19.834Z,10.90
2022-10-17T02:09:47.449Z,11.20
2022-10-17T02:12:47.209Z,10.90
2022-10-17T02:15:55.153Z,9.90
2022-10-17T02:18:48.208Z,9.30
2022-10-17T02:21:46.323Z,10.50
2022-10-17T02:24:33.213Z,11.50
2022-10-17T02:27:20.373Z,10.70
2022-10-17T02:30:03.472Z,11.00
2022-10-17T02:33:01.020Z,11.40
2022-10-17T02:35:35.374Z,11.10
2022-10-17T02:38:07.858Z,11.30
2022-10-17T02:40:38.278Z,11.40
2022-10-17T02:43:06.083Z,13.00
2022-10-17T02:45:37.669Z,11.10
2022-10-17T02:48:14.689Z,11.40
2022-10-17T02:50:45.253Z,11.90
2022-10-17T02:53:24.962Z,12.40
2022-10-17T02:56:02.659Z,11.30
2022-10-17T02:58:36.305Z,13.20
2022-10-17T03:01:05.914Z,12.20
2022-10-17T03:03:33.734Z,11.60
2022-10-17T03:06:01.431Z,12.60
2022-10-17T03:08:29.100Z,11.00
2022-10-17T03:10:56.816Z,13.60
2022-10-17T03:13:24.491Z,11.80
2022-10-17T03:15:52.090Z,11.30
2022-10-17T03:18:19.705Z,13.10
2022-10-17T03:20:47.260Z,11.20
2022-10-17T03:23:15.084Z,10.60
2022-10-17T03:25:42.754Z,11.20
2022-10-17T03:28:12.243Z,9.80
2022-10-17T03:30:39.796Z,11.20
2022-10-17T03:33:07.491Z,10.70
2022-10-17T03:35:40.329Z,10.80
2022-10-17T03:38:07.981Z,10.80
2022-10-17T03:40:35.577Z,10.50
2022-10-17T03:43:03.984Z,11.30
2022-10-17T03:45:31.602Z,11.00
2022-10-17T03:48:00.233Z,10.40
2022-10-17T03:50:27.882Z,9.80
2022-10-17T03:52:55.549Z,9.90
2022-10-17T03:55:24.458Z,11.10
2022-10-17T03:57:52.032Z,8.50
2022-10-17T04:00:19.761Z,10.70
2022-10-17T04:02:47.298Z,9.80
2022-10-17T04:05:15.014Z,10.70
2022-10-17T04:07:42.594Z,10.10
2022-10-17T04:10:11.002Z,9.30
2022-10-17T04:12:38.944Z,10.00
2022-10-17T04:15:07.659Z,9.30
2022-10-17T04:17:37.997Z,11.20
2022-10-17T04:20:06.925Z,10.10
2022-10-17T04:22:34.626Z,10.70
2022-10-17T04:25:02.441Z,9.30
2022-10-17T04:27:30.195Z,9.50
2022-10-17T04:29:57.816Z,8.70
2022-10-17T04:32:26.055Z,8.60
2022-10-17T04:34:53.815Z,8.60
2022-10-17T04:37:21.425Z,9.00
2022-10-17T04:39:48.990Z,8.70
2022-10-17T04:42:16.985Z,7.80
2022-10-17T04:44:44.645Z,8.80
2022-10-17T04:47:12.285Z,8.80
2022-10-17T04:52:12.360Z,7.90
2022-10-17T04:54:39.943Z,9.50
2022-10-17T04:57:07.605Z,9.60
2022-10-17T04:59:35.212Z,8.40
2022-10-17T05:02:02.733Z,8.10
2022-10-17T05:04:30.310Z,8.90
2022-10-17T05:06:57.857Z,8.90
2022-10-17T05:09:25.590Z,10.10
2022-10-17T05:11:53.293Z,9.30
2022-10-17T05:14:21.322Z,9.40
2022-10-17T05:16:48.940Z,8.60
2022-10-17T05:19:18.428Z,9.30
2022-10-17T05:21:45.992Z,7.90
2022-10-17T05:24:15.306Z,7.30
2022-10-17T05:26:43.175Z,8.30
2022-10-17T05:29:11.120Z,8.70
2022-10-17T05:31:38.792Z,7.60
2022-10-17T05:34:09.020Z,8.30
2022-10-17T05:36:39.273Z,7.80
2022-10-17T05:39:06.893Z,8.30
2022-10-17T05:41:34.924Z,8.30
2022-10-17T05:44:05.366Z,7.30
2022-10-17T05:46:33.432Z,8.20
2022-10-17T05:49:01.022Z,8.70
2022-10-17T05:51:28.792Z,8.70
2022-10-17T05:53:56.432Z,8.90
2022-10-17T05:56:24.101Z,9.60
2022-10-17T05:58:55.048Z,10.70
2022-10-17T06:01:24.547Z,10.40
2022-10-17T06:03:52.381Z,8.50
2022-10-17T06:06:20.382Z,9.20
2022-10-17T06:08:47.974Z,9.70
2022-10-17T06:11:15.654Z,8.50
2022-10-17T06:13:43.453Z,8.60
2022-10-17T06:16:11.058Z,8.90
2022-10-17T06:18:39.159Z,8.30
2022-10-17T06:21:11.444Z,8.50
2022-10-17T06:23:39.063Z,9.60
2022-10-17T06:26:07.714Z,7.60
2022-10-17T06:28:36.716Z,7.80
2022-10-17T06:31:10.696Z,7.90
2022-10-17T06:33:39.229Z,9.70
2022-10-17T06:36:11.600Z,8.80
2022-10-17T06:38:39.458Z,9.60
2022-10-17T06:41:18.922Z,10.00
2022-10-17T06:43:47.690Z,7.40
2022-10-17T06:46:18.407Z,9.00
2022-10-17T06:48:46.219Z,8.60
2022-10-17T06:51:13.966Z,10.20
2022-10-17T06:53:41.517Z,8.10
2022-10-17T06:56:10.879Z,8.00
2022-10-17T06:58:40.457Z,9.30
2022-10-17T07:01:12.042Z,9.00
2022-10-17T07:03:41.233Z,7.70
2022-10-17T07:06:11.404Z,7.70
2022-10-17T07:08:44.307Z,8.50
2022-10-17T07:11:19.508Z,9.10
2022-10-17T07:13:48.526Z,6.50
2022-10-17T07:16:17.231Z,9.30
2022-10-17T07:18:50.630Z,9.20
2022-10-17T07:21:18.573Z,8.10
2022-10-17T07:23:46.608Z,8.70
2022-10-17T07:26:17.379Z,7.70
2022-10-17T07:28:51.002Z,8.20
2022-10-17T07:31:20.550Z,8.80
2022-10-17T07:33:49.121Z,8.60
2022-10-17T07:36:17.891Z,8.10
2022-10-17T07:38:45.593Z,8.40
2022-10-17T07:41:17.780Z,8.60
2022-10-17T07:43:48.721Z,8.50
2022-10-17T07:46:16.288Z,8.20
2022-10-17T07:48:43.857Z,8.50
2022-10-17T07:51:11.475Z,7.10
2022-10-17T07:53:41.758Z,8.50
2022-10-17T07:56:12.480Z,7.20
2022-10-17T07:58:40.483Z,8.60
2022-10-17T08:01:15.420Z,8.80
2022-10-17T08:03:45.821Z,7.60
2022-10-17T08:06:13.564Z,7.60
2022-10-17T08:08:42.253Z,8.40
2022-10-17T08:11:14.352Z,7.80
2022-10-17T08:13:42.180Z,7.50
2022-10-17T08:16:13.272Z,8.60
2022-10-17T08:18:43.308Z,8.10
2022-10-17T08:21:13.252Z,7.50
2022-10-17T08:23:41.770Z,8.30
2022-10-17T08:26:13.326Z,8.00
2022-10-17T08:28:41.055Z,7.30
2022-10-17T08:31:14.653Z,8.20
2022-10-17T08:33:42.395Z,7.10
2022-10-17T08:36:13.642Z,8.10
2022-10-17T08:38:43.691Z,8.20
2022-10-17T08:41:42.758Z,7.30
2022-10-17T08:44:25.800Z,7.30
2022-10-17T08:46:59.073Z,8.40
2022-10-17T08:49:57.593Z,6.50
2022-10-17T08:53:02.928Z,7.40
2022-10-17T08:55:45.314Z,6.90
2022-10-17T08:58:32.577Z,7.90
2022-10-17T09:01:44.469Z,7.60
2022-10-17T09:04:42.182Z,10.00
2022-10-17T09:07:18.999Z,8.90
2022-10-17T09:10:15.551Z,10.10
2022-10-17T09:13:06.925Z,7.70
2022-10-17T09:15:55.212Z,8.60
2022-10-17T09:18:32.921Z,9.10
2022-10-17T09:21:42.835Z,8.30
2022-10-17T09:24:37.576Z,7.40
2022-10-17T09:27:22.074Z,7.70
2022-10-17T09:30:40.012Z,5.50
2022-10-17T09:33:53.848Z,7.30
2022-10-17T09:36:35.756Z,6.80
2022-10-17T09:39:22.324Z,5.80
2022-10-17T09:41:55.478Z,7.30
2022-10-17T09:44:34.000Z,7.50
2022-10-17T09:47:10.655Z,8.10
2022-10-17T09:49:42.373Z,8.90
2022-10-17T09:52:20.980Z,8.20
2022-10-17T09:54:57.396Z,7.50
2022-10-17T09:57:26.333Z,8.10
2022-10-17T10:00:05.015Z,9.00
2022-10-17T10:02:36.382Z,9.00
2022-10-17T10:05:16.573Z,8.80
2022-10-17T10:08:03.352Z,6.50
2022-10-17T10:10:32.343Z,7.90
2022-10-17T10:13:15.680Z,6.40
2022-10-17T10:15:49.507Z,8.30
2022-10-17T10:18:26.189Z,7.80
2022-10-17T10:21:06.773Z,7.70
2022-10-17T10:23:40.078Z,7.40
2022-10-17T10:26:25.877Z,8.20
2022-10-17T10:29:30.773Z,7.90
2022-10-17T10:32:11.986Z,8.10
2022-10-17T10:34:53.372Z,8.20
2022-10-17T10:37:38.950Z,7.10
2022-10-17T10:40:19.867Z,8.60
2022-10-17T10:42:52.753Z,8.90
2022-10-17T10:48:37.004Z,8.20
2022-10-17T10:51:10.025Z,7.30
2022-10-17T10:53:58.741Z,7.90
2022-10-17T10:57:07.316Z,7.20
2022-10-17T11:00:04.729Z,7.40
2022-10-17T11:03:01.821Z,8.10
2022-10-17T11:05:46.215Z,7.80
2022-10-17T11:08:51.040Z,6.50
2022-10-17T11:11:49.086Z,6.30
2022-10-17T11:14:30.407Z,5.60
2022-10-17T11:17:28.846Z,6.90
2022-10-17T11:20:09.718Z,6.40
2022-10-17T11:22:44.486Z,6.50
2022-10-17T11:25:12.001Z,7.50
2022-10-17T11:27:39.554Z,6.40
2022-10-17T11:30:13.873Z,5.90
2022-10-17T11:32:58.100Z,6.70
2022-10-17T11:35:42.107Z,6.70
2022-10-17T11:38:42.006Z,6.60
2022-10-17T11:41:22.116Z,6.90
2022-10-17T11:44:19.516Z,6.80
2022-10-17T11:46:56.379Z,6.60
2022-10-17T11:49:46.093Z,5.60
2022-10-17T11:52:44.412Z,6.10
2022-10-17T11:55:26.495Z,4.60
2022-10-17T11:58:38.481Z,6.20
2022-10-17T12:01:38.934Z,6.00
2022-10-17T12:05:06.928Z,8.40
2022-10-17T12:08:01.170Z,5.80
2022-10-17T12:10:46.566Z,6.50
2022-10-17T12:13:29.243Z,6.00
2022-10-17T12:16:20.680Z,5.80
2022-10-17T12:19:23.089Z,6.30
2022-10-17T12:22:20.042Z,5.40
2022-10-17T12:25:03.184Z,5.50
2022-10-17T12:27:36.027Z,6.30
2022-10-17T12:30:26.057Z,6.30
2022-10-17T12:33:22.441Z,4.80
2022-10-17T12:36:11.626Z,4.80
2022-10-17T12:38:39.222Z,6.20
2022-10-17T12:41:06.855Z,5.60
2022-10-17T12:43:53.589Z,5.90
2022-10-17T12:47:07.965Z,5.50
2022-10-17T12:49:54.414Z,4.90
2022-10-17T12:52:35.034Z,5.30
2022-10-17T12:55:25.509Z,5.10
2022-10-17T12:58:08.143Z,4.80
2022-10-17T13:01:22.530Z,5.20
2022-10-17T13:03:52.394Z,4.00
2022-10-17T13:06:28.279Z,5.00
2022-10-17T13:09:24.186Z,5.50
2022-10-17T13:11:54.395Z,5.40
2022-10-17T13:14:24.548Z,5.20
2022-10-17T13:17:00.442Z,5.50
2022-10-17T13:19:42.934Z,5.00
2022-10-17T13:22:16.825Z,5.60
2022-10-17T13:24:44.995Z,6.80
2022-10-17T13:27:34.498Z,4.90
2022-10-17T13:30:41.370Z,4.70
2022-10-17T13:33:39.246Z,5.00
2022-10-17T13:36:15.652Z,5.20
2022-10-17T13:38:43.420Z,4.50
2022-10-17T13:41:34.878Z,4.70
2022-10-17T13:44:12.136Z,3.80
2022-10-17T13:46:40.741Z,4.50
2022-10-17T13:49:18.822Z,4.00
2022-10-17T13:51:51.819Z,4.20
2022-10-17T13:54:40.919Z,4.70
2022-10-17T13:57:26.965Z,4.20
2022-10-17T14:00:09.910Z,4.20
2022-10-17T14:02:41.864Z,4.30
2022-10-17T14:05:19.307Z,4.20
2022-10-17T14:08:22.799Z,4.00
2022-10-17T14:10:50.562Z,4.70
2022-10-17T14:13:28.852Z,4.60
2022-10-17T14:16:02.883Z,4.70
2022-10-17T14:18:36.643Z,4.20
2022-10-17T14:21:36.943Z,4.70
2022-10-17T14:24:22.502Z,3.90
2022-10-17T14:26:54.712Z,4.40
2022-10-17T14:29:27.686Z,4.50
2022-10-17T14:32:13.801Z,4.30
2022-10-17T14:34:41.799Z,4.60
2022-10-17T14:37:17.297Z,4.70
2022-10-17T14:39:51.010Z,4.00
2022-10-17T14:42:21.907Z,4.80
2022-10-17T14:44:52.631Z,4.10
2022-10-17T14:47:42.720Z,3.80
2022-10-17T14:50:11.450Z,4.00
2022-10-17T14:52:39.875Z,5.90
2022-10-17T14:55:27.151Z,4.30
2022-10-17T14:57:54.847Z,4.10
2022-10-17T15:00:24.913Z,4.20
2022-10-17T15:02:55.179Z,4.30
2022-10-17T15:05:23.411Z,4.50
2022-10-17T15:07:51.869Z,4.50
2022-10-17T15:10:33.867Z,4.10
2022-10-17T15:13:27.184Z,3.70
2022-10-17T15:15:52.124Z,4.60
2022-10-17T15:18:20.213Z,4.30
2022-10-17T15:20:51.961Z,4.60
2022-10-17T15:23:27.353Z,4.50
2022-10-17T15:25:55.002Z,4.50
2022-10-17T15:28:22.622Z,4.20
2022-10-17T15:30:50.201Z,4.30
2022-10-17T15:33:17.870Z,4.40
2022-10-17T15:35:45.912Z,4.40
2022-10-17T15:38:18.066Z,4.50
2022-10-17T15:40:48.973Z,4.70
2022-10-17T15:43:19.850Z,5.20
2022-10-17T15:45:48.570Z,4.90
2022-10-17T15:48:25.769Z,4.60
2022-10-17T15:50:53.372Z,4.90
2022-10-17T15:53:21.205Z,4.50
2022-10-17T15:55:50.987Z,4.60
2022-10-17T15:58:19.667Z,4.50
2022-10-17T16:00:48.408Z,4.50
2022-10-17T16:03:16.100Z,5.10
2022-10-17T16:05:43.743Z,4.90
2022-10-17T16:08:11.339Z,5.60
2022-10-17T16:10:40.787Z,5.20
2022-10-17T16:13:18.248Z,5.40
2022-10-17T16:15:46.215Z,5.40
2022-10-17T16:18:14.510Z,6.00
2022-10-17T16:20:42.168Z,4.70
2022-10-17T16:23:12.854Z,5.40
2022-10-17T16:25:41.184Z,4.70
2022-10-17T16:28:09.519Z,5.60
2022-10-17T16:30:44.833Z,6.40
2022-10-17T16:33:12.698Z,5.90
2022-10-17T16:35:40.647Z,6.30
2022-10-17T16:38:08.366Z,6.90
2022-10-17T16:40:39.816Z,6.90
2022-10-17T16:43:12.278Z,7.20
2022-10-17T16:45:41.149Z,6.30
2022-10-17T16:48:09.820Z,6.50
2022-10-17T16:50:40.044Z,6.70
2022-10-17T16:53:07.768Z,6.20
2022-10-17T16:55:35.508Z,5.50
2022-10-17T16:58:03.085Z,6.00
2022-10-17T17:00:30.857Z,6.40
2022-10-17T17:02:58.467Z,6.50
2022-10-17T17:05:26.198Z,6.30
2022-10-17T17:07:55.618Z,6.70
2022-10-17T17:10:23.233Z,6.40
2022-10-17T17:12:51.094Z,6.60
2022-10-17T17:15:18.804Z,6.80
2022-10-17T17:17:52.491Z,7.20
2022-10-17T17:20:23.020Z,6.70
2022-10-17T17:22:51.908Z,7.00
2022-10-17T17:25:19.775Z,6.80
2022-10-17T17:27:47.476Z,6.20
2022-10-17T17:30:16.209Z,6.40
2022-10-17T17:32:43.810Z,5.80
2022-10-17T17:35:11.342Z,5.60
2022-10-17T17:37:38.940Z,6.30
2022-10-17T17:40:07.652Z,5.90
2022-10-17T17:42:35.317Z,5.80
2022-10-17T17:45:04.095Z,5.60
2022-10-17T17:47:31.972Z,5.70
2022-10-17T17:49:59.697Z,5.20
2022-10-17T17:52:27.464Z,5.10
2022-10-17T17:54:56.239Z,5.00
2022-10-17T17:57:23.812Z,5.60
2022-10-17T17:59:52.291Z,5.20
2022-10-17T18:02:19.869Z,5.10
2022-10-17T18:04:48.613Z,5.10
2022-10-17T18:07:16.248Z,5.70
2022-10-17T18:09:43.905Z,5.90
2022-10-17T18:12:11.535Z,5.60
2022-10-17T18:14:39.188Z,5.00
2022-10-17T18:17:06.792Z,4.50
2022-10-17T18:19:34.817Z,4.40
2022-10-17T18:22:02.657Z,5.50
2022-10-17T18:24:30.225Z,5.80
2022-10-17T18:26:59.950Z,6.00
2022-10-17T18:29:29.505Z,5.50
2022-10-17T18:31:57.086Z,5.40
2022-10-17T18:34:25.665Z,4.30
2022-10-17T18:36:56.305Z,5.80
2022-10-17T18:39:24.192Z,5.20
2022-10-17T18:41:51.804Z,5.70
2022-10-17T18:44:19.683Z,5.70
2022-10-17T18:46:47.456Z,5.30
2022-10-17T18:49:18.963Z,5.80
2022-10-17T18:51:47.253Z,6.10
2022-10-17T18:54:20.499Z,5.70
2022-10-17T18:56:53.628Z,5.20
2022-10-17T18:59:22.149Z,5.20
2022-10-17T19:01:49.858Z,5.80
2022-10-17T19:04:17.850Z,5.20
2022-10-17T19:06:45.408Z,5.60
2022-10-17T19:09:14.810Z,4.90
2022-10-17T19:11:43.007Z,4.70
2022-10-17T19:14:13.444Z,4.70
2022-10-17T19:16:46.354Z,5.60
2022-10-17T19:19:21.956Z,5.10
2022-10-17T19:21:50.958Z,5.30
2022-10-17T19:24:25.177Z,6.20
2022-10-17T19:26:55.770Z,6.50
2022-10-17T19:29:27.668Z,6.10
2022-10-17T19:34:23.755Z,6.10
2022-10-17T19:36:51.393Z,6.20
2022-10-17T19:39:23.281Z,6.20
2022-10-17T19:41:51.385Z,5.70
2022-10-17T19:44:19.412Z,7.30
2022-10-17T19:46:49.169Z,6.40
2022-10-17T19:49:18.215Z,6.60
2022-10-17T19:51:45.883Z,9.00
2022-10-17T19:54:15.169Z,10.00
2022-10-17T19:56:43.512Z,13.00
2022-10-17T19:59:14.716Z,12.30
2022-10-17T20:01:43.602Z,14.40
2022-10-17T20:04:13.500Z,12.00
2022-10-17T20:06:41.619Z,11.10
2022-10-17T20:09:14.049Z,10.80
2022-10-17T20:11:45.477Z,8.90
2022-10-17T20:14:13.159Z,8.70
2022-10-17T20:16:40.864Z,8.20
2022-10-17T20:19:11.939Z,7.50
2022-10-17T20:21:40.311Z,8.30
2022-10-17T20:24:14.242Z,9.00
2022-10-17T20:26:42.774Z,8.10
2022-10-17T20:29:20.414Z,8.10
2022-10-17T20:31:48.603Z,7.60
2022-10-17T20:34:19.064Z,7.50
2022-10-17T20:36:48.012Z,8.50
2022-10-17T20:39:18.810Z,9.90
2022-10-17T20:41:46.991Z,9.00
2022-10-17T20:44:14.639Z,8.70
2022-10-17T20:46:52.722Z,7.60
2022-10-17T20:49:26.493Z,8.30
2022-10-17T20:51:53.993Z,7.20
2022-10-17T20:54:22.433Z,7.30
2022-10-17T20:56:50.140Z,5.70
2022-10-17T20:59:18.597Z,6.70
2022-10-17T21:01:47.847Z,6.30
2022-10-17T21:04:44.100Z,5.90
2022-10-17T21:07:03.657Z,5.60
2022-10-17T21:09:31.381Z,6.30
2022-10-17T21:11:58.997Z,5.90
2022-10-17T21:14:26.582Z,6.30
2022-10-17T21:16:54.256Z,5.50
2022-10-17T21:19:22.057Z,5.20
2022-10-17T21:21:50.511Z,5.70
2022-10-17T21:24:20.511Z,6.50
2022-10-17T21:26:55.243Z,6.50
2022-10-17T21:29:24.058Z,6.60
2022-10-17T21:31:52.812Z,6.50
2022-10-17T21:34:25.006Z,6.10
2022-10-17T21:36:53.450Z,5.70
2022-10-17T21:39:22.944Z,5.90
2022-10-17T21:41:51.669Z,6.10
2022-10-17T21:44:24.845Z,5.80
2022-10-17T21:46:53.860Z,5.90
2022-10-17T21:49:25.019Z,6.00
2022-10-17T21:51:53.576Z,6.20
2022-10-17T21:54:23.587Z,5.90
2022-10-17T21:56:52.688Z,6.40
2022-10-17T21:59:20.277Z,6.60
2022-10-17T22:01:47.995Z,6.30
2022-10-17T22:04:19.016Z,6.60
2022-10-17T22:06:51.156Z,7.00
2022-10-17T22:09:25.728Z,7.30
2022-10-17T22:11:56.650Z,6.10
2022-10-17T22:14:27.279Z,6.30
2022-10-17T22:16:55.566Z,5.70
2022-10-17T22:19:26.697Z,6.90
2022-10-17T22:21:55.048Z,5.40
2022-10-17T22:24:23.322Z,5.60
2022-10-17T22:26:51.727Z,5.50
2022-10-17T22:29:20.175Z,5.70
2022-10-17T22:31:47.805Z,5.90
2022-10-17T22:34:17.960Z,5.60
2022-10-17T22:36:47.779Z,5.80
2022-10-17T22:39:15.653Z,5.40
2022-10-17T22:41:43.244Z,6.10
2022-10-17T22:44:10.872Z,6.20
2022-10-17T22:46:38.683Z,6.30
2022-10-17T22:49:06.284Z,6.20
2022-10-17T22:51:33.885Z,5.00
2022-10-17T22:54:01.578Z,5.40
2022-10-17T22:56:29.233Z,5.80
2022-10-17T22:58:56.822Z,7.50
2022-10-17T23:01:25.819Z,8.50
2022-10-17T23:03:54.185Z,6.90
2022-10-17T23:06:22.436Z,7.50
2022-10-17T23:08:50.161Z,7.10
2022-10-17T23:11:18.477Z,6.60
2022-10-17T23:13:46.239Z,5.20
2022-10-17T23:16:13.755Z,5.30
2022-10-17T23:18:41.863Z,5.50
2022-10-17T23:21:10.245Z,5.80
2022-10-17T23:23:37.801Z,5.30
2022-10-17T23:26:13.447Z,4.90
2022-10-17T23:28:42.901Z,5.30
2022-10-17T23:31:19.870Z,4.70
2022-10-17T23:33:49.896Z,4.60
2022-10-17T23:36:20.593Z,4.60
2022-10-17T23:38:49.013Z,5.40
2022-10-17T23:41:17.157Z,4.20
2022-10-17T23:43:45.051Z,4.60
2022-10-17T23:46:13.467Z,4.20
2022-10-17T23:48:41.372Z,4.80
2022-10-17T23:51:10.427Z,4.30
2022-10-17T23:53:39.438Z,5.10
2022-10-17T23:56:09.026Z,5.00
2022-10-17T23:58:38.756Z,4.80
